createdAt,value
2019-03-20T00:02:10.037Z,70.47
2019-03-20T00:04:36.611Z,66.10
2019-03-20T00:07:03.194Z,66.37
2019-03-20T00:09:29.767Z,63.77
2019-03-20T00:11:56.341Z,67.17
2019-03-20T00:14:22.924Z,66.77
2019-03-20T00:16:49.498Z,66.23
2019-03-20T00:19:16.083Z,69.77
2019-03-20T00:21:42.662Z,63.03
2019-03-20T00:24:09.239Z,66.37
2019-03-20T00:26:35.815Z,74.87
2019-03-20T00:29:02.394Z,55.77
2019-03-20T00:31:28.978Z,61.70
2019-03-20T00:33:55.544Z,63.23
2019-03-20T00:36:22.127Z,74.77
2019-03-20T00:38:48.710Z,67.23
2019-03-20T00:41:15.393Z,66.17
2019-03-20T00:43:41.970Z,69.73
2019-03-20T00:46:08.552Z,71.90
2019-03-20T00:48:35.125Z,67.13
2019-03-20T00:51:01.721Z,70.73
2019-03-20T00:53:28.296Z,60.30
2019-03-20T00:55:54.897Z,67.20
2019-03-20T00:58:21.476Z,70.97
2019-03-20T01:00:48.087Z,67.87
2019-03-20T01:03:14.663Z,66.07
2019-03-20T01:05:41.262Z,64.93
2019-03-20T01:08:07.835Z,70.37
2019-03-20T01:10:34.500Z,74.63
2019-03-20T01:13:01.110Z,62.00
2019-03-20T01:15:27.677Z,66.90
2019-03-20T01:17:54.249Z,66.43
2019-03-20T01:20:20.820Z,58.37
2019-03-20T01:22:47.516Z,63.23
2019-03-20T01:25:14.102Z,68.70
2019-03-20T01:27:40.709Z,60.63
2019-03-20T01:30:07.337Z,57.27
2019-03-20T01:32:33.988Z,69.03
2019-03-20T01:35:00.583Z,60.27
2019-03-20T01:37:27.183Z,64.67
2019-03-20T01:39:53.777Z,61.43
2019-03-20T01:42:20.408Z,60.90
2019-03-20T01:44:46.986Z,59.77
2019-03-20T01:47:13.599Z,58.80
2019-03-20T01:49:40.179Z,62.63
2019-03-20T01:52:06.849Z,67.40
2019-03-20T01:54:33.549Z,67.93
2019-03-20T01:57:00.157Z,66.77
2019-03-20T01:59:26.732Z,69.70
2019-03-20T02:01:53.344Z,66.10
2019-03-20T02:04:19.922Z,72.80
2019-03-20T02:06:46.537Z,69.50
2019-03-20T02:09:13.123Z,73.60
2019-03-20T02:11:39.711Z,65.43
2019-03-20T02:14:06.292Z,62.20
2019-03-20T02:16:32.909Z,60.73
2019-03-20T02:18:59.492Z,60.27
2019-03-20T02:21:26.079Z,52.77
2019-03-20T02:23:52.665Z,60.40
2019-03-20T02:26:19.261Z,77.20
2019-03-20T02:28:45.914Z,60.47
2019-03-20T02:31:12.540Z,52.00
2019-03-20T02:33:39.190Z,58.00
2019-03-20T02:36:05.805Z,53.97
2019-03-20T02:38:32.390Z,55.40
2019-03-20T02:40:58.945Z,61.67
2019-03-20T02:43:25.510Z,66.47
2019-03-20T02:45:52.092Z,64.63
2019-03-20T02:48:18.668Z,59.47
2019-03-20T02:50:45.245Z,61.37
2019-03-20T02:53:11.817Z,61.27
2019-03-20T02:55:38.424Z,52.03
2019-03-20T02:58:05.073Z,55.80
2019-03-20T03:00:31.702Z,58.33
2019-03-20T03:02:58.281Z,56.50
2019-03-20T03:05:24.857Z,54.87
2019-03-20T03:07:51.430Z,63.73
2019-03-20T03:10:18.031Z,69.13
2019-03-20T03:12:44.672Z,66.70
2019-03-20T03:15:11.246Z,62.80
2019-03-20T03:17:37.867Z,59.40
2019-03-20T03:20:04.517Z,62.97
2019-03-20T03:22:31.119Z,67.47
2019-03-20T03:24:57.693Z,64.37
2019-03-20T03:27:24.304Z,69.63
2019-03-20T03:29:50.866Z,71.77
2019-03-20T03:32:17.578Z,66.93
2019-03-20T03:34:44.159Z,70.30
2019-03-20T03:37:10.743Z,71.47
2019-03-20T03:39:37.334Z,69.03
2019-03-20T03:42:03.923Z,57.53
2019-03-20T03:44:30.514Z,65.93
2019-03-20T03:46:57.131Z,68.90
2019-03-20T03:49:23.699Z,70.13
2019-03-20T03:51:50.292Z,66.90
2019-03-20T03:54:16.862Z,64.73
2019-03-20T03:56:43.473Z,60.73
2019-03-20T03:59:10.050Z,61.53
2019-03-20T04:01:36.652Z,59.87
2019-03-20T04:04:03.227Z,62.63
2019-03-20T04:06:35.536Z,58.93
2019-03-20T04:08:58.094Z,66.93
2019-03-20T04:11:24.674Z,61.50
2019-03-20T04:13:51.254Z,74.93
2019-03-20T04:16:17.819Z,64.83
2019-03-20T04:18:44.402Z,65.07
2019-03-20T04:21:10.986Z,68.00
2019-03-20T04:23:37.561Z,61.73
2019-03-20T04:26:04.139Z,61.33
2019-03-20T04:28:30.770Z,60.40
2019-03-20T04:30:57.369Z,58.57
2019-03-20T04:33:23.949Z,55.53
2019-03-20T04:35:50.530Z,56.13
2019-03-20T04:38:17.208Z,51.83
2019-03-20T04:40:43.795Z,46.40
2019-03-20T04:43:10.371Z,55.43
2019-03-20T04:45:36.953Z,56.80
2019-03-20T04:48:03.529Z,62.77
2019-03-20T04:50:30.108Z,57.10
2019-03-20T04:52:56.672Z,62.77
2019-03-20T04:55:23.239Z,54.13
2019-03-20T04:57:49.822Z,67.83
2019-03-20T05:00:16.439Z,64.87
2019-03-20T05:02:43.052Z,61.90
2019-03-20T05:05:09.615Z,52.07
2019-03-20T05:07:36.231Z,75.57
2019-03-20T05:10:02.807Z,71.00
2019-03-20T05:12:29.398Z,59.63
2019-03-20T05:14:55.970Z,69.00
2019-03-20T05:17:22.572Z,63.30
2019-03-20T05:19:49.148Z,59.57
2019-03-20T05:22:15.755Z,66.67
2019-03-20T05:24:42.328Z,65.67
2019-03-20T05:27:08.905Z,66.07
2019-03-20T05:29:35.501Z,65.30
2019-03-20T05:32:02.133Z,77.60
2019-03-20T05:34:28.706Z,71.37
2019-03-20T05:36:55.278Z,68.67
2019-03-20T05:39:21.870Z,66.90
2019-03-20T05:41:48.444Z,58.87
2019-03-20T05:44:15.021Z,61.30
2019-03-20T05:46:41.589Z,65.73
2019-03-20T05:49:08.166Z,65.60
2019-03-20T05:51:34.756Z,68.57
2019-03-20T05:54:01.318Z,67.47
2019-03-20T05:56:27.888Z,61.90
2019-03-20T05:58:54.468Z,62.67
2019-03-20T06:01:21.061Z,61.53
2019-03-20T06:03:47.636Z,56.70
2019-03-20T06:06:14.220Z,72.30
2019-03-20T06:08:40.804Z,63.00
2019-03-20T06:11:07.492Z,68.73
2019-03-20T06:13:34.061Z,66.37
2019-03-20T06:16:00.634Z,73.67
2019-03-20T06:18:27.255Z,68.17
2019-03-20T06:20:53.836Z,68.77
2019-03-20T06:23:20.461Z,65.57
2019-03-20T06:25:47.031Z,70.47
2019-03-20T06:28:13.646Z,68.83
2019-03-20T06:30:40.229Z,77.50
2019-03-20T06:33:07.096Z,71.00
2019-03-20T06:35:33.714Z,71.13
2019-03-20T06:38:00.326Z,66.70
2019-03-20T06:40:26.892Z,70.53
2019-03-20T06:42:55.284Z,82.03
2019-03-20T06:45:21.791Z,74.53
2019-03-20T06:47:48.396Z,92.20
2019-03-20T06:50:14.965Z,77.03
2019-03-20T06:52:41.576Z,85.70
2019-03-20T06:55:08.154Z,94.53
2019-03-20T06:57:34.739Z,85.07
2019-03-20T07:00:01.322Z,80.53
2019-03-20T07:02:27.888Z,87.57
2019-03-20T07:04:54.549Z,85.07
2019-03-20T07:07:21.118Z,79.00
2019-03-20T07:09:47.713Z,81.30
2019-03-20T07:12:14.286Z,80.53
2019-03-20T07:14:40.861Z,67.40
2019-03-20T07:17:07.448Z,64.60
2019-03-20T07:19:34.155Z,69.50
2019-03-20T07:22:00.728Z,69.13
2019-03-20T07:24:27.324Z,68.57
2019-03-20T07:26:53.899Z,67.20
2019-03-20T07:29:20.496Z,59.10
2019-03-20T07:31:47.070Z,63.03
2019-03-20T07:34:13.719Z,54.47
2019-03-20T07:36:40.313Z,67.97
2019-03-20T07:39:06.895Z,63.15
2019-03-20T07:41:33.469Z,78.03
2019-03-20T07:44:00.068Z,71.62
2019-03-20T07:46:26.645Z,75.17
2019-03-20T07:48:53.246Z,82.82
2019-03-20T07:51:19.828Z,63.90
2019-03-20T07:53:46.469Z,65.20
2019-03-20T07:56:13.085Z,63.17
2019-03-20T07:58:39.674Z,65.55
2019-03-20T08:01:06.250Z,64.80
2019-03-20T08:03:32.863Z,68.20
2019-03-20T08:05:59.438Z,56.05
2019-03-20T08:08:26.059Z,56.33
2019-03-20T08:10:52.631Z,57.27
2019-03-20T08:13:19.252Z,61.85
2019-03-20T08:15:45.840Z,46.00
2019-03-20T08:18:12.411Z,49.48
2019-03-20T08:20:38.981Z,40.98
2019-03-20T08:23:05.551Z,39.65
2019-03-20T08:25:32.135Z,37.23
2019-03-20T08:27:58.716Z,45.25
2019-03-20T08:30:25.286Z,47.10
2019-03-20T08:32:51.865Z,38.45
2019-03-20T08:35:18.492Z,32.38
2019-03-20T08:37:45.065Z,31.27
2019-03-20T08:40:11.645Z,28.02
2019-03-20T08:42:38.217Z,20.08
2019-03-20T08:45:04.802Z,25.62
2019-03-20T08:47:31.380Z,24.77
2019-03-20T08:49:57.959Z,28.20
2019-03-20T08:52:24.536Z,33.48
2019-03-20T08:54:51.118Z,31.97
2019-03-20T08:57:17.690Z,19.57
2019-03-20T08:59:44.277Z,24.60
2019-03-20T09:02:10.867Z,21.00
2019-03-20T09:04:37.426Z,18.30
2019-03-20T09:07:04.004Z,25.35
2019-03-20T09:09:30.582Z,24.57
2019-03-20T09:11:57.165Z,21.77
2019-03-20T09:14:23.744Z,17.82
2019-03-20T09:16:50.319Z,27.93
2019-03-20T09:19:16.907Z,25.75
2019-03-20T09:21:43.489Z,25.68
2019-03-20T09:24:10.062Z,20.35
2019-03-20T09:26:36.638Z,16.90
2019-03-20T09:29:03.238Z,18.73
2019-03-20T09:31:29.822Z,27.95
2019-03-20T09:33:56.484Z,23.25
2019-03-20T09:36:23.188Z,24.20
2019-03-20T09:38:49.805Z,18.20
2019-03-20T09:41:16.380Z,18.98
2019-03-20T09:43:43.018Z,21.42
2019-03-20T09:46:09.595Z,18.07
2019-03-20T09:48:36.170Z,21.25
2019-03-20T09:51:02.778Z,15.13
2019-03-20T09:53:29.368Z,17.32
2019-03-20T09:55:55.976Z,21.37
2019-03-20T09:58:22.558Z,24.32
2019-03-20T10:00:49.167Z,20.65
2019-03-20T10:03:15.751Z,15.08
2019-03-20T10:05:42.358Z,13.10
2019-03-20T10:08:09.006Z,14.53
2019-03-20T10:10:35.661Z,16.70
2019-03-20T10:13:02.338Z,19.45
2019-03-20T10:15:28.931Z,19.15
2019-03-20T10:17:55.513Z,20.17
2019-03-20T10:20:22.116Z,17.82
2019-03-20T10:22:48.693Z,20.32
2019-03-20T10:25:15.302Z,18.17
2019-03-20T10:27:41.884Z,16.32
2019-03-20T10:30:08.516Z,14.47
2019-03-20T10:32:35.088Z,19.85
2019-03-20T10:35:01.699Z,17.65
2019-03-20T10:37:28.270Z,19.65
2019-03-20T10:39:54.871Z,20.85
2019-03-20T10:42:21.447Z,19.00
2019-03-20T10:44:48.068Z,17.20
2019-03-20T10:47:14.643Z,20.45
2019-03-20T10:49:41.256Z,18.98
2019-03-20T10:52:07.849Z,12.75
2019-03-20T10:54:34.465Z,19.65
2019-03-20T10:57:01.131Z,12.05
2019-03-20T10:59:27.736Z,15.05
2019-03-20T11:01:54.318Z,20.72
2019-03-20T11:04:20.926Z,16.05
2019-03-20T11:06:47.502Z,26.73
2019-03-20T11:09:18.580Z,21.25
2019-03-20T11:11:42.395Z,19.02
2019-03-20T11:14:08.971Z,19.15
2019-03-20T11:16:35.565Z,20.12
2019-03-20T11:19:02.220Z,21.48
2019-03-20T11:21:28.799Z,16.67
2019-03-20T11:23:55.392Z,13.83
2019-03-20T11:26:21.972Z,12.28
2019-03-20T11:28:48.543Z,15.78
2019-03-20T11:31:15.134Z,16.40
2019-03-20T11:33:41.701Z,12.30
2019-03-20T11:36:08.277Z,8.03
2019-03-20T11:38:34.930Z,7.33
2019-03-20T11:41:01.519Z,10.95
2019-03-20T11:43:28.092Z,11.08
2019-03-20T11:45:54.687Z,14.40
2019-03-20T11:48:21.242Z,12.07
2019-03-20T11:50:47.863Z,10.72
2019-03-20T11:53:14.442Z,14.10
2019-03-20T11:55:41.017Z,12.55
2019-03-20T11:58:09.842Z,10.70
2019-03-20T12:00:36.443Z,8.48
2019-03-20T12:03:03.015Z,5.70
2019-03-20T12:05:29.606Z,8.50
2019-03-20T12:07:56.186Z,10.63
2019-03-20T12:10:22.779Z,11.88
2019-03-20T12:12:49.358Z,8.95
2019-03-20T12:15:15.983Z,9.68
2019-03-20T12:17:42.583Z,12.47
2019-03-20T12:20:09.200Z,12.98
2019-03-20T12:22:35.814Z,12.68
2019-03-20T12:25:02.441Z,8.15
2019-03-20T12:27:29.025Z,8.58
2019-03-20T12:29:55.613Z,15.50
2019-03-20T12:32:22.189Z,17.57
2019-03-20T12:34:48.764Z,15.90
2019-03-20T12:37:15.344Z,22.75
2019-03-20T12:39:52.634Z,11.05
2019-03-20T12:42:10.215Z,13.25
2019-03-20T12:44:36.789Z,14.30
2019-03-20T12:47:03.372Z,12.00
2019-03-20T12:49:29.956Z,11.28
2019-03-20T12:51:56.583Z,11.28
2019-03-20T12:54:23.208Z,15.30
2019-03-20T12:56:49.784Z,12.95
2019-03-20T12:59:16.366Z,11.83
2019-03-20T13:01:42.937Z,11.63
2019-03-20T13:04:09.525Z,8.75
2019-03-20T13:06:36.089Z,9.78
2019-03-20T13:09:03.779Z,11.85
2019-03-20T13:11:30.496Z,13.78
2019-03-20T13:13:57.086Z,13.30
2019-03-20T13:16:23.663Z,9.58
2019-03-20T13:18:50.251Z,11.35
2019-03-20T13:21:16.822Z,11.63
2019-03-20T13:23:43.404Z,14.05
2019-03-20T13:26:09.977Z,13.25
2019-03-20T13:28:36.562Z,11.08
2019-03-20T13:31:03.155Z,10.05
2019-03-20T13:33:29.771Z,10.45
2019-03-20T13:35:56.391Z,10.25
2019-03-20T13:38:22.965Z,15.00
2019-03-20T13:40:49.541Z,13.48
2019-03-20T13:43:16.148Z,10.45
2019-03-20T13:45:42.714Z,16.05
2019-03-20T13:48:09.314Z,15.45
2019-03-20T13:50:35.935Z,27.20
2019-03-20T13:53:02.508Z,25.02
2019-03-20T13:55:29.123Z,14.98
2019-03-20T13:57:55.706Z,9.78
2019-03-20T14:00:22.310Z,10.88
2019-03-20T14:02:48.924Z,12.68
2019-03-20T14:05:15.505Z,13.40
2019-03-20T14:07:42.130Z,13.13
2019-03-20T14:10:08.709Z,14.15
2019-03-20T14:12:35.311Z,23.27
2019-03-20T14:15:01.881Z,11.38
2019-03-20T14:17:28.473Z,12.73
2019-03-20T14:19:55.051Z,23.73
2019-03-20T14:22:21.676Z,13.62
2019-03-20T14:24:48.256Z,8.73
2019-03-20T14:27:14.847Z,8.88
2019-03-20T14:29:41.420Z,9.88
2019-03-20T14:32:08.006Z,20.70
2019-03-20T14:34:34.582Z,8.73
2019-03-20T14:37:01.180Z,9.95
2019-03-20T14:39:27.749Z,8.38
2019-03-20T14:41:54.340Z,7.03
2019-03-20T14:44:20.903Z,7.58
2019-03-20T14:46:47.499Z,16.50
2019-03-20T14:49:14.070Z,7.12
2019-03-20T14:51:40.694Z,5.78
2019-03-20T14:54:07.337Z,11.43
2019-03-20T14:56:33.950Z,11.85
2019-03-20T14:59:00.530Z,14.23
2019-03-20T15:01:27.190Z,10.28
2019-03-20T15:03:53.759Z,9.63
2019-03-20T15:06:20.383Z,14.63
2019-03-20T15:08:46.958Z,18.30
2019-03-20T15:11:13.559Z,14.10
2019-03-20T15:13:40.143Z,20.55
2019-03-20T15:16:06.743Z,30.72
2019-03-20T15:18:33.326Z,16.27
2019-03-20T15:20:59.896Z,16.85
2019-03-20T15:23:26.478Z,14.43
2019-03-20T15:25:53.112Z,15.08
2019-03-20T15:28:19.685Z,19.60
2019-03-20T15:30:46.253Z,11.95
2019-03-20T15:33:12.830Z,13.35
2019-03-20T15:38:23.810Z,13.80
2019-03-20T15:40:56.196Z,22.73
2019-03-20T15:43:18.707Z,16.70
2019-03-20T15:45:45.284Z,16.00
2019-03-20T15:48:11.879Z,16.02
2019-03-20T15:50:38.477Z,11.68
2019-03-20T15:53:05.088Z,11.97
2019-03-20T15:55:31.666Z,16.77
2019-03-20T15:57:58.292Z,21.90
2019-03-20T16:00:24.857Z,17.12
2019-03-20T16:02:51.461Z,15.60
2019-03-20T16:05:18.035Z,23.55
2019-03-20T16:07:44.652Z,15.55
2019-03-20T16:10:11.229Z,26.90
2019-03-20T16:12:37.842Z,18.77
2019-03-20T16:15:04.471Z,19.60
2019-03-20T16:17:31.066Z,17.20
2019-03-20T16:19:57.642Z,24.57
2019-03-20T16:22:24.251Z,23.15
2019-03-20T16:24:50.822Z,18.37
2019-03-20T16:27:17.424Z,20.10
2019-03-20T16:29:43.997Z,18.32
2019-03-20T16:32:11.730Z,23.77
2019-03-20T16:34:38.349Z,19.57
2019-03-20T16:37:05.067Z,35.25
2019-03-20T16:39:31.645Z,23.50
2019-03-20T16:41:58.259Z,13.70
2019-03-20T16:44:24.840Z,14.93
2019-03-20T16:46:51.452Z,20.75
2019-03-20T16:49:18.032Z,17.92
2019-03-20T16:51:44.633Z,24.75
2019-03-20T16:54:11.381Z,26.07
2019-03-20T16:56:38.000Z,30.88
2019-03-20T16:59:04.601Z,43.15
2019-03-20T17:01:31.242Z,66.28
2019-03-20T17:03:57.816Z,68.97
2019-03-20T17:06:24.405Z,60.67
2019-03-20T17:08:50.983Z,57.40
2019-03-20T17:11:27.448Z,55.38
2019-03-20T17:13:45.869Z,41.40
2019-03-20T17:16:12.462Z,44.20
2019-03-20T17:18:39.031Z,58.52
2019-03-20T17:21:05.598Z,51.60
2019-03-20T17:23:32.185Z,57.40
2019-03-20T17:25:58.766Z,54.58
2019-03-20T17:28:25.344Z,50.45
2019-03-20T17:30:53.064Z,50.52
2019-03-20T17:33:19.640Z,45.25
2019-03-20T17:35:46.220Z,52.43
2019-03-20T17:38:12.798Z,49.50
2019-03-20T17:40:39.383Z,48.80
2019-03-20T17:43:05.966Z,44.42
2019-03-20T17:45:32.534Z,54.53
2019-03-20T17:47:59.106Z,100.70
2019-03-20T17:50:25.693Z,103.60
2019-03-20T17:52:52.299Z,93.40
2019-03-20T17:55:18.873Z,98.55
2019-03-20T17:57:45.637Z,99.65
2019-03-20T18:00:12.211Z,107.65
2019-03-20T18:02:40.237Z,95.53
2019-03-20T18:05:06.814Z,94.55
2019-03-20T18:07:35.312Z,95.22
2019-03-20T18:10:01.730Z,111.42
2019-03-20T18:12:29.244Z,103.65
2019-03-20T18:14:55.857Z,104.72
2019-03-20T18:17:22.460Z,107.52
2019-03-20T18:19:49.045Z,101.87
2019-03-20T18:22:15.650Z,94.47
2019-03-20T18:24:42.226Z,134.63
2019-03-20T18:27:08.809Z,136.25
2019-03-20T18:29:35.372Z,129.32
2019-03-20T18:32:01.954Z,120.00
2019-03-20T18:34:28.519Z,129.75
2019-03-20T18:36:55.106Z,104.85
2019-03-20T18:39:21.671Z,119.65
2019-03-20T18:41:57.354Z,131.90
2019-03-20T18:44:16.562Z,118.33
2019-03-20T18:46:43.135Z,113.92
2019-03-20T18:49:09.728Z,119.70
2019-03-20T18:51:36.321Z,117.72
2019-03-20T18:54:02.892Z,113.47
2019-03-20T18:56:29.540Z,118.53
2019-03-20T18:58:56.114Z,131.07
2019-03-20T19:01:22.693Z,134.00
2019-03-20T19:03:49.347Z,124.70
2019-03-20T19:06:15.918Z,122.90
2019-03-20T19:08:42.599Z,124.72
2019-03-20T19:11:09.326Z,125.35
2019-03-20T19:13:36.076Z,122.67
2019-03-20T19:16:02.651Z,128.68
2019-03-20T19:18:29.239Z,118.80
2019-03-20T19:20:55.808Z,114.88
2019-03-20T19:23:22.387Z,112.85
2019-03-20T19:25:48.968Z,119.95
2019-03-20T19:28:16.466Z,116.17
2019-03-20T19:30:43.037Z,120.40
2019-03-20T19:33:09.619Z,127.58
2019-03-20T19:35:36.240Z,110.37
2019-03-20T19:38:02.823Z,124.05
2019-03-20T19:40:29.410Z,112.37
2019-03-20T19:42:56.053Z,125.53
2019-03-20T19:45:22.641Z,123.20
2019-03-20T19:47:49.210Z,121.22
2019-03-20T19:50:15.803Z,104.20
2019-03-20T19:52:42.448Z,108.13
2019-03-20T19:55:09.166Z,108.03
2019-03-20T19:57:35.818Z,124.15
2019-03-20T20:00:02.398Z,99.47
2019-03-20T20:02:28.988Z,99.43
2019-03-20T20:04:55.571Z,97.83
2019-03-20T20:07:22.143Z,108.30
2019-03-20T20:09:48.793Z,107.30
2019-03-20T20:12:15.374Z,108.97
2019-03-20T20:14:41.967Z,104.70
2019-03-20T20:17:08.556Z,109.60
2019-03-20T20:19:35.138Z,100.97
2019-03-20T20:22:01.713Z,112.03
2019-03-20T20:24:28.315Z,104.63
2019-03-20T20:26:54.899Z,113.13
2019-03-20T20:29:21.678Z,125.20
2019-03-20T20:31:48.244Z,113.03
2019-03-20T20:34:14.824Z,110.70
2019-03-20T20:36:41.391Z,98.87
2019-03-20T20:39:08.016Z,114.03
2019-03-20T20:41:34.595Z,138.37
2019-03-20T20:44:01.167Z,118.80
2019-03-20T20:46:27.745Z,107.10
2019-03-20T20:48:54.482Z,103.77
2019-03-20T20:51:21.122Z,117.03
2019-03-20T20:53:47.729Z,116.88
2019-03-20T20:56:14.313Z,118.50
2019-03-20T20:58:40.908Z,118.93
2019-03-20T21:01:07.480Z,102.70
2019-03-20T21:03:34.116Z,98.20
2019-03-20T21:06:00.695Z,108.73
2019-03-20T21:08:28.598Z,99.80
2019-03-20T21:10:55.173Z,111.47
2019-03-20T21:13:21.792Z,108.50
2019-03-20T21:15:48.363Z,117.70
2019-03-20T21:18:15.033Z,111.10
2019-03-20T21:20:41.635Z,112.33
2019-03-20T21:23:08.196Z,112.23
2019-03-20T21:25:34.830Z,107.20
2019-03-20T21:28:01.399Z,106.97
2019-03-20T21:30:28.040Z,118.97
2019-03-20T21:32:54.617Z,115.40
2019-03-20T21:35:21.220Z,114.03
2019-03-20T21:37:47.794Z,121.20
2019-03-20T21:40:14.389Z,125.87
2019-03-20T21:42:40.967Z,132.13
2019-03-20T21:45:07.628Z,117.63
2019-03-20T21:47:34.285Z,143.90
2019-03-20T21:50:00.871Z,132.70
2019-03-20T21:52:27.463Z,132.93
2019-03-20T21:54:54.019Z,141.10
2019-03-20T21:57:20.654Z,100.27
2019-03-20T21:59:47.208Z,111.67
2019-03-20T22:02:13.808Z,100.87
2019-03-20T22:04:40.384Z,98.90
2019-03-20T22:07:06.963Z,104.80
2019-03-20T22:09:33.596Z,85.97
2019-03-20T22:12:00.287Z,83.10
2019-03-20T22:14:26.880Z,82.63
2019-03-20T22:16:53.458Z,79.97
2019-03-20T22:19:20.049Z,90.23
2019-03-20T22:21:46.633Z,76.13
2019-03-20T22:24:13.227Z,89.47
2019-03-20T22:26:39.804Z,87.53
2019-03-20T22:29:06.461Z,76.47
2019-03-20T22:31:33.035Z,85.90
2019-03-20T22:33:59.607Z,69.73
2019-03-20T22:36:26.228Z,81.40
2019-03-20T22:38:52.810Z,75.97
2019-03-20T22:41:19.411Z,80.60
2019-03-20T22:43:45.990Z,78.20
2019-03-20T22:46:12.613Z,83.47
2019-03-20T22:48:39.176Z,87.03
2019-03-20T22:51:05.797Z,84.00
2019-03-20T22:53:32.372Z,83.60
2019-03-20T22:55:59.064Z,76.53
2019-03-20T22:58:25.642Z,71.43
2019-03-20T23:00:52.257Z,68.33
2019-03-20T23:03:18.838Z,73.17
2019-03-20T23:05:45.452Z,77.77
2019-03-20T23:08:12.034Z,73.97
2019-03-20T23:10:38.601Z,69.13
2019-03-20T23:13:05.186Z,71.30
2019-03-20T23:15:31.757Z,79.87
2019-03-20T23:17:58.376Z,71.00
2019-03-20T23:20:24.938Z,80.93
2019-03-20T23:22:52.059Z,63.93
2019-03-20T23:25:18.628Z,63.97
2019-03-20T23:27:45.218Z,63.47
2019-03-20T23:30:11.789Z,68.13
2019-03-20T23:32:38.389Z,64.10
2019-03-20T23:35:04.966Z,67.67
2019-03-20T23:37:32.641Z,66.47
2019-03-20T23:39:59.210Z,61.60
2019-03-20T23:42:25.803Z,57.40
2019-03-20T23:44:52.372Z,61.43
2019-03-20T23:47:18.975Z,54.00
2019-03-20T23:49:45.549Z,60.30
2019-03-20T23:52:12.137Z,56.70
2019-03-20T23:54:38.713Z,60.93
2019-03-20T23:57:05.301Z,61.43
2019-03-20T23:59:31.877Z,59.83
